createdAt,value
2022-08-28T00:02:24.093Z,1.30
2022-08-28T00:04:50.812Z,1.40
2022-08-28T00:07:17.458Z,0.88
2022-08-28T00:09:44.207Z,1.00
2022-08-28T00:12:12.389Z,1.40
2022-08-28T00:14:39.644Z,2.40
2022-08-28T00:17:06.304Z,1.30
2022-08-28T00:19:36.697Z,1.40
2022-08-28T00:22:05.670Z,1.40
2022-08-28T00:24:32.047Z,1.30
2022-08-28T00:27:16.941Z,1.85
2022-08-28T00:29:45.083Z,1.50
2022-08-28T00:32:11.525Z,1.48
2022-08-28T00:34:38.846Z,1.50
2022-08-28T00:37:06.242Z,1.50
2022-08-28T00:39:32.942Z,1.80
2022-08-28T00:41:59.470Z,1.58
2022-08-28T00:44:27.926Z,1.95
2022-08-28T00:46:57.666Z,1.83
2022-08-28T00:49:28.280Z,2.03
2022-08-28T00:52:08.590Z,3.17
2022-08-28T00:54:59.369Z,2.35
2022-08-28T00:57:34.750Z,2.22
2022-08-28T01:00:01.743Z,1.90
2022-08-28T01:02:28.369Z,2.40
2022-08-28T01:04:55.455Z,2.47
2022-08-28T01:07:23.116Z,2.13
2022-08-28T01:09:54.031Z,2.20
2022-08-28T01:12:27.929Z,2.30
2022-08-28T01:14:59.886Z,2.33
2022-08-28T01:17:31.156Z,2.15
2022-08-28T01:20:03.239Z,2.28
2022-08-28T01:22:29.591Z,2.30
2022-08-28T01:25:00.769Z,2.95
2022-08-28T01:27:27.805Z,2.30
2022-08-28T01:29:54.315Z,2.58
2022-08-28T01:32:33.059Z,2.42
2022-08-28T01:35:00.972Z,2.38
2022-08-28T01:37:28.195Z,2.63
2022-08-28T01:39:54.693Z,2.67
2022-08-28T01:42:21.668Z,2.78
2022-08-28T01:44:49.166Z,2.88
2022-08-28T01:47:15.836Z,2.97
2022-08-28T01:49:42.269Z,3.58
2022-08-28T01:52:09.404Z,2.85
2022-08-28T01:54:38.385Z,2.97
2022-08-28T01:57:05.683Z,2.95
2022-08-28T01:59:33.216Z,3.45
2022-08-28T02:01:59.874Z,2.88
2022-08-28T02:04:31.733Z,3.20
2022-08-28T02:06:59.273Z,2.63
2022-08-28T02:09:25.700Z,3.30
2022-08-28T02:11:52.663Z,2.97
2022-08-28T02:14:19.257Z,3.00
2022-08-28T02:16:45.717Z,2.95
2022-08-28T02:19:12.248Z,3.25
2022-08-28T02:21:39.260Z,2.97
2022-08-28T02:24:05.919Z,3.10
2022-08-28T02:26:32.726Z,3.00
2022-08-28T02:28:59.417Z,3.22
2022-08-28T02:31:26.821Z,3.55
2022-08-28T02:33:53.265Z,3.10
2022-08-28T02:36:22.372Z,2.95
2022-08-28T02:38:48.856Z,3.28
2022-08-28T02:41:15.394Z,3.05
2022-08-28T02:43:41.871Z,3.33
2022-08-28T02:46:09.113Z,3.50
2022-08-28T02:48:38.035Z,4.15
2022-08-28T02:51:08.261Z,3.03
2022-08-28T02:53:35.763Z,3.58
2022-08-28T02:56:03.295Z,3.50
2022-08-28T02:58:32.596Z,3.40
2022-08-28T03:01:01.697Z,3.80
2022-08-28T03:03:31.205Z,3.38
2022-08-28T03:05:59.785Z,3.22
2022-08-28T03:08:27.384Z,3.70
2022-08-28T03:10:54.155Z,3.40
2022-08-28T03:13:23.049Z,3.20
2022-08-28T03:15:56.036Z,3.47
2022-08-28T03:18:24.347Z,3.85
2022-08-28T03:20:52.158Z,4.20
2022-08-28T03:23:27.599Z,3.65
2022-08-28T03:26:00.864Z,4.82
2022-08-28T03:28:31.941Z,3.55
2022-08-28T03:30:58.805Z,4.07
2022-08-28T03:33:26.782Z,3.58
2022-08-28T03:35:55.549Z,3.45
2022-08-28T03:38:22.942Z,3.40
2022-08-28T03:40:52.104Z,3.80
2022-08-28T03:43:21.984Z,3.95
2022-08-28T03:46:04.275Z,3.83
2022-08-28T03:48:34.648Z,3.72
2022-08-28T03:51:02.235Z,3.10
2022-08-28T03:53:29.915Z,3.20
2022-08-28T03:55:57.945Z,3.17
2022-08-28T03:58:25.172Z,3.40
2022-08-28T04:00:51.875Z,3.13
2022-08-28T04:03:18.935Z,3.25
2022-08-28T04:05:46.723Z,3.58
2022-08-28T04:08:16.665Z,3.65
2022-08-28T04:10:44.566Z,3.45
2022-08-28T04:13:12.584Z,3.40
2022-08-28T04:15:40.944Z,3.65
2022-08-28T04:18:08.360Z,3.70
2022-08-28T04:20:35.098Z,3.42
2022-08-28T04:23:03.788Z,3.55
2022-08-28T04:25:30.948Z,3.20
2022-08-28T04:27:57.508Z,3.60
2022-08-28T04:30:24.200Z,3.13
2022-08-28T04:32:50.630Z,3.28
2022-08-28T04:35:17.057Z,3.05
2022-08-28T04:37:43.790Z,3.38
2022-08-28T04:40:12.885Z,3.30
2022-08-28T04:42:40.117Z,3.28
2022-08-28T04:45:07.420Z,3.65
2022-08-28T04:47:38.813Z,3.15
2022-08-28T04:50:06.960Z,3.10
2022-08-28T04:52:33.516Z,3.50
2022-08-28T04:55:00.243Z,3.35
2022-08-28T04:57:26.670Z,3.20
2022-08-28T04:59:53.128Z,2.80
2022-08-28T05:02:19.906Z,3.83
2022-08-28T05:04:47.235Z,3.30
2022-08-28T05:07:13.865Z,3.10
2022-08-28T05:09:40.234Z,2.95
2022-08-28T05:12:06.694Z,3.72
2022-08-28T05:14:33.186Z,3.10
2022-08-28T05:16:59.819Z,3.90
2022-08-28T05:19:27.892Z,2.78
2022-08-28T05:21:54.872Z,3.97
2022-08-28T05:24:22.424Z,3.10
2022-08-28T05:26:49.006Z,3.45
2022-08-28T05:29:16.691Z,3.13
2022-08-28T05:31:43.809Z,2.70
2022-08-28T05:34:10.469Z,3.10
2022-08-28T05:36:38.850Z,3.38
2022-08-28T05:39:08.844Z,3.50
2022-08-28T05:41:36.758Z,3.05
2022-08-28T05:44:06.661Z,3.20
2022-08-28T05:46:34.535Z,2.95
2022-08-28T05:49:00.997Z,2.85
2022-08-28T05:51:28.144Z,3.25
2022-08-28T05:53:55.695Z,2.60
2022-08-28T05:56:25.230Z,2.60
2022-08-28T05:58:51.731Z,2.67
2022-08-28T06:01:19.541Z,2.75
2022-08-28T06:03:56.101Z,3.05
2022-08-28T06:06:24.573Z,3.10
2022-08-28T06:08:58.685Z,2.58
2022-08-28T06:11:27.016Z,2.78
2022-08-28T06:14:02.687Z,2.70
2022-08-28T06:16:31.187Z,2.45
2022-08-28T06:18:58.056Z,2.88
2022-08-28T06:21:24.736Z,2.40
2022-08-28T06:23:51.721Z,2.70
2022-08-28T06:26:18.244Z,2.72
2022-08-28T06:28:44.689Z,2.40
2022-08-28T06:31:28.814Z,2.60
2022-08-28T06:33:58.520Z,2.50
2022-08-28T06:36:29.986Z,2.80
2022-08-28T06:39:00.825Z,2.50
2022-08-28T06:41:28.418Z,2.67
2022-08-28T06:43:56.112Z,2.85
2022-08-28T06:46:22.954Z,2.60
2022-08-28T06:48:49.727Z,2.33
2022-08-28T06:51:16.727Z,2.30
2022-08-28T06:53:45.431Z,2.65
2022-08-28T06:56:25.698Z,2.60
2022-08-28T06:58:55.996Z,2.63
2022-08-28T07:01:24.361Z,2.72
2022-08-28T07:03:53.715Z,2.83
2022-08-28T07:06:22.109Z,2.45
2022-08-28T07:08:49.120Z,3.20
2022-08-28T07:11:19.776Z,2.50
2022-08-28T07:13:46.449Z,2.60
2022-08-28T07:16:16.106Z,2.47
2022-08-28T07:18:44.386Z,2.90
2022-08-28T07:21:12.613Z,2.50
2022-08-28T07:23:41.990Z,2.50
2022-08-28T07:26:12.652Z,2.17
2022-08-28T07:28:39.625Z,1.80
2022-08-28T07:31:13.262Z,2.33
2022-08-28T07:33:40.411Z,2.45
2022-08-28T07:36:15.775Z,2.47
2022-08-28T07:38:45.857Z,2.88
2022-08-28T07:41:26.983Z,2.75
2022-08-28T07:44:12.094Z,2.40
2022-08-28T07:49:06.908Z,2.50
2022-08-28T07:51:33.465Z,2.30
2022-08-28T07:54:00.349Z,3.13
2022-08-28T07:56:29.607Z,2.40
2022-08-28T07:58:58.264Z,2.33
2022-08-28T08:01:26.477Z,2.30
2022-08-28T08:03:57.655Z,2.70
2022-08-28T08:06:33.891Z,2.00
2022-08-28T08:09:01.870Z,2.53
2022-08-28T08:11:28.420Z,2.17
2022-08-28T08:14:05.626Z,1.90
2022-08-28T08:16:38.939Z,2.10
2022-08-28T08:19:06.750Z,1.90
2022-08-28T08:21:33.231Z,2.38
2022-08-28T08:23:59.622Z,2.00
2022-08-28T08:26:28.097Z,1.80
2022-08-28T08:28:55.641Z,2.00
2022-08-28T08:31:33.184Z,2.10
2022-08-28T08:34:02.457Z,2.30
2022-08-28T08:36:30.512Z,1.85
2022-08-28T08:38:59.396Z,2.20
2022-08-28T08:41:48.554Z,2.03
2022-08-28T08:44:33.548Z,2.13
2022-08-28T08:47:13.999Z,2.17
2022-08-28T08:49:55.866Z,2.17
2022-08-28T08:52:42.415Z,1.88
2022-08-28T08:55:18.958Z,2.05
2022-08-28T08:57:49.323Z,2.10
2022-08-28T09:00:17.757Z,1.98
2022-08-28T09:02:54.786Z,2.60
2022-08-28T09:05:32.455Z,2.03
2022-08-28T09:08:02.637Z,2.10
2022-08-28T09:10:39.488Z,1.88
2022-08-28T09:13:16.600Z,2.33
2022-08-28T09:15:48.790Z,2.47
2022-08-28T09:18:31.912Z,2.83
2022-08-28T09:21:00.138Z,2.10
2022-08-28T09:23:29.999Z,2.60
2022-08-28T09:26:02.470Z,2.90
2022-08-28T09:28:40.924Z,2.53
2022-08-28T09:31:15.750Z,2.30
2022-08-28T09:33:48.512Z,2.20
2022-08-28T09:36:22.610Z,2.28
2022-08-28T09:39:24.513Z,2.13
2022-08-28T09:42:42.240Z,2.40
2022-08-28T09:45:21.409Z,2.70
2022-08-28T09:47:58.457Z,2.40
2022-08-28T09:50:42.373Z,2.15
2022-08-28T09:53:08.740Z,1.93
2022-08-28T09:55:47.198Z,2.20
2022-08-28T09:58:15.659Z,1.70
2022-08-28T10:00:49.873Z,2.20
2022-08-28T10:03:25.673Z,1.80
2022-08-28T10:06:06.291Z,1.85
2022-08-28T10:08:57.073Z,1.95
2022-08-28T10:11:31.572Z,2.10
2022-08-28T10:14:10.946Z,1.95
2022-08-28T10:17:06.669Z,2.10
2022-08-28T10:19:59.949Z,1.77
2022-08-28T10:22:26.349Z,1.65
2022-08-28T10:25:07.392Z,1.90
2022-08-28T10:27:53.135Z,2.30
2022-08-28T10:30:23.054Z,1.85
2022-08-28T10:33:17.126Z,2.13
2022-08-28T10:35:57.993Z,2.00
2022-08-28T10:38:37.316Z,2.28
2022-08-28T10:41:25.340Z,1.80
2022-08-28T10:43:54.067Z,2.05
2022-08-28T10:46:29.024Z,2.08
2022-08-28T10:49:18.642Z,2.00
2022-08-28T10:51:49.598Z,1.85
2022-08-28T10:54:30.423Z,1.67
2022-08-28T10:57:26.932Z,1.50
2022-08-28T10:59:54.247Z,2.10
2022-08-28T11:02:25.812Z,1.92
2022-08-28T11:04:58.367Z,1.80
2022-08-28T11:07:48.373Z,1.92
2022-08-28T11:10:23.596Z,1.80
2022-08-28T11:12:52.627Z,1.88
2022-08-28T11:15:40.975Z,1.83
2022-08-28T11:18:16.655Z,1.90
2022-08-28T11:21:05.877Z,1.80
2022-08-28T11:23:47.407Z,1.70
2022-08-28T11:26:23.581Z,2.10
2022-08-28T11:28:51.843Z,2.25
2022-08-28T11:31:28.779Z,1.80
2022-08-28T11:33:58.831Z,2.08
2022-08-28T11:36:29.733Z,1.67
2022-08-28T11:38:56.294Z,1.95
2022-08-28T11:41:27.450Z,1.70
2022-08-28T11:43:59.564Z,2.17
2022-08-28T11:46:31.542Z,2.03
2022-08-28T11:49:05.103Z,2.22
2022-08-28T11:51:56.222Z,1.98
2022-08-28T11:54:51.397Z,2.00
2022-08-28T11:57:23.767Z,2.00
2022-08-28T12:00:21.428Z,1.80
2022-08-28T12:02:56.054Z,1.80
2022-08-28T12:05:39.949Z,1.77
2022-08-28T12:08:06.850Z,1.90
2022-08-28T12:10:33.185Z,2.00
2022-08-28T12:13:03.250Z,1.80
2022-08-28T12:15:29.749Z,1.80
2022-08-28T12:18:04.776Z,2.15
2022-08-28T12:21:25.451Z,1.80
2022-08-28T12:24:08.962Z,2.00
2022-08-28T12:26:39.759Z,1.60
2022-08-28T12:29:28.083Z,1.52
2022-08-28T12:32:27.906Z,1.75
2022-08-28T12:34:57.306Z,1.60
2022-08-28T12:37:53.031Z,1.50
2022-08-28T12:40:52.762Z,1.40
2022-08-28T12:43:22.482Z,1.50
2022-08-28T12:45:53.418Z,2.03
2022-08-28T12:48:32.878Z,2.00
2022-08-28T12:51:12.558Z,1.65
2022-08-28T12:53:43.359Z,1.48
2022-08-28T12:56:14.542Z,1.75
2022-08-28T12:58:42.203Z,1.83
2022-08-28T13:01:14.661Z,1.70
2022-08-28T13:03:52.918Z,1.40
2022-08-28T13:06:32.795Z,1.50
2022-08-28T13:09:14.035Z,1.70
2022-08-28T13:11:46.772Z,1.30
2022-08-28T13:14:13.581Z,1.60
2022-08-28T13:16:46.509Z,1.83
2022-08-28T13:19:27.221Z,1.42
2022-08-28T13:22:01.925Z,1.35
2022-08-28T13:24:30.985Z,1.73
2022-08-28T13:27:02.327Z,1.35
2022-08-28T13:29:29.324Z,1.67
2022-08-28T13:32:05.605Z,1.70
2022-08-28T13:34:39.197Z,1.65
2022-08-28T13:37:40.942Z,1.48
2022-08-28T13:40:16.006Z,1.38
2022-08-28T13:42:55.996Z,1.60
2022-08-28T13:45:22.429Z,1.70
2022-08-28T13:47:48.816Z,1.70
2022-08-28T13:50:15.298Z,1.50
2022-08-28T13:52:42.136Z,1.83
2022-08-28T13:55:09.810Z,1.60
2022-08-28T13:57:37.093Z,1.80
2022-08-28T14:00:04.744Z,1.50
2022-08-28T14:02:49.647Z,1.30
2022-08-28T14:05:16.121Z,2.33
2022-08-28T14:07:42.521Z,1.33
2022-08-28T14:10:11.522Z,1.45
2022-08-28T14:12:38.027Z,1.40
2022-08-28T14:15:05.426Z,1.70
2022-08-28T14:17:31.864Z,1.70
2022-08-28T14:20:00.217Z,1.45
2022-08-28T14:22:27.386Z,1.50
2022-08-28T14:24:53.981Z,1.48
2022-08-28T14:27:20.494Z,1.52
2022-08-28T14:29:47.022Z,1.30
2022-08-28T14:32:13.466Z,1.38
2022-08-28T14:34:40.020Z,1.45
2022-08-28T14:37:06.609Z,1.20
2022-08-28T14:39:33.554Z,1.40
2022-08-28T14:42:00.017Z,1.58
2022-08-28T14:44:26.502Z,1.30
2022-08-28T14:46:56.902Z,1.52
2022-08-28T14:49:25.656Z,1.20
2022-08-28T14:51:53.717Z,1.30
2022-08-28T14:54:22.565Z,1.42
2022-08-28T14:56:49.979Z,1.40
2022-08-28T14:59:24.464Z,1.33
2022-08-28T15:01:52.368Z,1.35
2022-08-28T15:04:22.749Z,1.25
2022-08-28T15:06:54.821Z,0.98
2022-08-28T15:09:21.265Z,1.70
2022-08-28T15:11:47.718Z,1.30
2022-08-28T15:14:14.162Z,1.40
2022-08-28T15:16:43.309Z,1.00
2022-08-28T15:19:13.089Z,1.45
2022-08-28T15:21:47.133Z,1.30
2022-08-28T15:24:16.150Z,1.25
2022-08-28T15:26:42.843Z,1.10
2022-08-28T15:29:10.778Z,1.35
2022-08-28T15:31:41.525Z,1.20
2022-08-28T15:34:13.872Z,1.20
2022-08-28T15:36:42.213Z,1.23
2022-08-28T15:39:27.886Z,1.60
2022-08-28T15:41:54.570Z,1.42
2022-08-28T15:44:21.187Z,1.08
2022-08-28T15:46:53.845Z,1.90
2022-08-28T15:49:23.808Z,1.80
2022-08-28T15:51:50.802Z,1.25
2022-08-28T15:54:17.417Z,1.15
2022-08-28T15:56:43.866Z,1.23
2022-08-28T15:59:10.577Z,1.33
2022-08-28T16:01:38.392Z,1.55
2022-08-28T16:04:06.604Z,1.10
2022-08-28T16:06:34.708Z,1.10
2022-08-28T16:09:01.199Z,1.13
2022-08-28T16:11:28.085Z,1.08
2022-08-28T16:13:58.990Z,1.40
2022-08-28T16:16:25.431Z,1.30
2022-08-28T16:18:54.196Z,1.30
2022-08-28T16:21:20.645Z,1.40
2022-08-28T16:23:48.232Z,1.30
2022-08-28T16:26:15.864Z,1.42
2022-08-28T16:28:44.691Z,1.35
2022-08-28T16:31:19.223Z,1.27
2022-08-28T16:33:48.292Z,1.30
2022-08-28T16:36:15.590Z,1.30
2022-08-28T16:38:45.450Z,1.48
2022-08-28T16:41:21.747Z,1.08
2022-08-28T16:43:49.355Z,1.10
2022-08-28T16:46:20.057Z,1.40
2022-08-28T16:48:47.820Z,1.33
2022-08-28T16:51:15.455Z,1.00
2022-08-28T16:53:42.784Z,1.23
2022-08-28T16:56:11.258Z,1.60
2022-08-28T16:58:42.444Z,1.10
2022-08-28T17:01:10.604Z,1.10
2022-08-28T17:03:38.618Z,1.27
2022-08-28T17:06:13.170Z,1.02
2022-08-28T17:11:06.821Z,1.27
2022-08-28T17:13:34.740Z,1.08
2022-08-28T17:16:01.774Z,1.17
2022-08-28T17:18:28.615Z,1.20
2022-08-28T17:21:13.494Z,1.30
2022-08-28T17:23:39.925Z,1.38
2022-08-28T17:26:06.468Z,1.25
2022-08-28T17:28:33.486Z,1.10
2022-08-28T17:31:00.304Z,1.40
2022-08-28T17:33:26.810Z,1.17
2022-08-28T17:35:58.180Z,1.27
2022-08-28T17:38:26.333Z,1.80
2022-08-28T17:40:53.255Z,1.23
2022-08-28T17:43:20.649Z,1.48
2022-08-28T17:45:47.413Z,2.00
2022-08-28T17:48:14.407Z,1.40
2022-08-28T17:50:41.061Z,1.45
2022-08-28T17:53:07.526Z,1.02
2022-08-28T17:55:33.940Z,1.27
2022-08-28T17:58:00.418Z,1.40
2022-08-28T18:00:26.850Z,1.60
2022-08-28T18:02:54.364Z,1.27
2022-08-28T18:05:20.986Z,1.20
2022-08-28T18:07:47.573Z,1.23
2022-08-28T18:10:14.082Z,1.27
2022-08-28T18:12:41.403Z,1.60
2022-08-28T18:15:10.183Z,1.85
2022-08-28T18:17:38.188Z,1.95
2022-08-28T18:20:06.934Z,1.17
2022-08-28T18:22:33.377Z,1.27
2022-08-28T18:24:59.879Z,1.40
2022-08-28T18:27:31.363Z,1.30
2022-08-28T18:29:58.618Z,1.30
2022-08-28T18:32:25.535Z,1.67
2022-08-28T18:34:52.206Z,1.60
2022-08-28T18:37:18.585Z,1.90
2022-08-28T18:39:45.144Z,1.60
2022-08-28T18:42:11.827Z,1.42
2022-08-28T18:44:38.288Z,1.90
2022-08-28T18:47:04.809Z,1.52
2022-08-28T18:49:31.333Z,1.75
2022-08-28T18:51:57.860Z,1.25
2022-08-28T18:54:24.326Z,1.80
2022-08-28T18:56:51.442Z,1.38
2022-08-28T18:59:18.852Z,1.95
2022-08-28T19:01:45.559Z,1.60
2022-08-28T19:04:12.102Z,1.33
2022-08-28T19:06:40.929Z,1.65
2022-08-28T19:09:07.432Z,1.65
2022-08-28T19:11:35.704Z,1.70
2022-08-28T19:14:03.801Z,1.90
2022-08-28T19:16:31.819Z,2.10
2022-08-28T19:18:58.332Z,1.98
2022-08-28T19:21:25.047Z,1.67
2022-08-28T19:23:55.915Z,1.92
2022-08-28T19:26:24.479Z,1.58
2022-08-28T19:28:51.443Z,1.58
2022-08-28T19:31:18.257Z,1.50
2022-08-28T19:33:46.752Z,1.70
2022-08-28T19:36:14.114Z,1.50
2022-08-28T19:38:41.556Z,1.60
2022-08-28T19:41:10.105Z,1.70
2022-08-28T19:43:44.204Z,1.55
2022-08-28T19:46:18.218Z,1.38
2022-08-28T19:48:46.661Z,1.70
2022-08-28T19:51:14.380Z,1.73
2022-08-28T19:53:44.680Z,1.75
2022-08-28T19:56:11.116Z,2.13
2022-08-28T19:58:37.581Z,2.40
2022-08-28T20:01:04.864Z,1.60
2022-08-28T20:03:31.726Z,1.77
2022-08-28T20:06:03.622Z,1.73
2022-08-28T20:08:30.708Z,1.58
2022-08-28T20:10:57.317Z,1.60
2022-08-28T20:13:23.878Z,2.13
2022-08-28T20:15:50.460Z,1.75
2022-08-28T20:18:16.902Z,1.65
2022-08-28T20:20:45.897Z,2.20
2022-08-28T20:23:12.356Z,1.67
2022-08-28T20:25:39.183Z,1.80
2022-08-28T20:28:05.748Z,1.90
2022-08-28T20:30:32.146Z,2.10
2022-08-28T20:33:01.234Z,2.40
2022-08-28T20:35:27.807Z,1.75
2022-08-28T20:37:54.189Z,2.28
2022-08-28T20:40:21.662Z,1.73
2022-08-28T20:42:48.871Z,1.70
2022-08-28T20:45:16.936Z,1.75
2022-08-28T20:47:44.264Z,1.75
2022-08-28T20:50:12.235Z,1.90
2022-08-28T20:52:38.834Z,1.75
2022-08-28T20:55:07.587Z,2.03
2022-08-28T20:57:34.412Z,1.80
2022-08-28T21:00:05.344Z,1.88
2022-08-28T21:02:33.055Z,1.80
2022-08-28T21:04:59.617Z,1.98
2022-08-28T21:07:26.647Z,1.95
2022-08-28T21:10:05.055Z,1.80
2022-08-28T21:12:34.911Z,1.77
2022-08-28T21:15:01.551Z,1.55
2022-08-28T21:17:29.638Z,1.58
2022-08-28T21:19:59.949Z,1.70
2022-08-28T21:22:26.428Z,1.73
2022-08-28T21:24:52.813Z,1.55
2022-08-28T21:27:19.244Z,1.10
2022-08-28T21:29:46.015Z,1.60
2022-08-28T21:32:12.539Z,1.92
2022-08-28T21:34:39.068Z,1.13
2022-08-28T21:37:06.256Z,1.85
2022-08-28T21:39:32.699Z,1.60
2022-08-28T21:41:59.165Z,1.52
2022-08-28T21:44:25.567Z,1.40
2022-08-28T21:46:52.038Z,1.58
2022-08-28T21:49:18.598Z,1.25
2022-08-28T21:51:44.994Z,1.50
2022-08-28T21:54:11.518Z,1.38
2022-08-28T21:56:37.941Z,1.60
2022-08-28T21:59:04.446Z,1.67
2022-08-28T22:01:31.044Z,1.35
2022-08-28T22:03:57.640Z,1.38
2022-08-28T22:06:25.292Z,1.48
2022-08-28T22:08:52.861Z,1.50
2022-08-28T22:11:24.497Z,1.60
2022-08-28T22:13:52.520Z,1.90
2022-08-28T22:16:19.717Z,1.40
2022-08-28T22:18:46.261Z,1.73
2022-08-28T22:21:34.740Z,1.40
2022-08-28T22:24:01.827Z,1.40
2022-08-28T22:26:28.343Z,1.23
2022-08-28T22:28:55.849Z,1.60
2022-08-28T22:31:22.333Z,1.17
2022-08-28T22:33:48.876Z,1.45
2022-08-28T22:36:17.333Z,1.50
2022-08-28T22:38:49.770Z,2.25
2022-08-28T22:41:20.164Z,1.30
2022-08-28T22:43:48.281Z,1.58
2022-08-28T22:46:16.813Z,2.03
2022-08-28T22:48:43.292Z,1.38
2022-08-28T22:51:13.753Z,1.40
2022-08-28T22:53:42.300Z,1.40
2022-08-28T22:56:10.072Z,1.55
2022-08-28T22:58:37.177Z,1.25
2022-08-28T23:01:17.601Z,1.42
2022-08-28T23:03:44.957Z,1.10
2022-08-28T23:06:12.052Z,1.48
2022-08-28T23:08:38.570Z,1.58
2022-08-28T23:11:05.762Z,1.80
2022-08-28T23:13:33.071Z,1.23
2022-08-28T23:16:01.702Z,1.23
2022-08-28T23:18:28.834Z,1.40
2022-08-28T23:20:56.017Z,1.73
2022-08-28T23:23:23.375Z,1.40
2022-08-28T23:25:50.433Z,1.40
2022-08-28T23:28:17.783Z,1.30
2022-08-28T23:30:48.541Z,1.50
2022-08-28T23:33:23.785Z,1.20
2022-08-28T23:35:51.882Z,1.30
2022-08-28T23:38:18.744Z,1.27
2022-08-28T23:40:46.021Z,1.40
2022-08-28T23:43:12.417Z,1.48
2022-08-28T23:45:40.690Z,2.20
2022-08-28T23:48:07.789Z,1.38
2022-08-28T23:50:34.487Z,1.50
2022-08-28T23:53:01.305Z,1.48
2022-08-28T23:55:28.028Z,1.20
2022-08-28T23:57:54.465Z,1.40
